Time;durP1;ratioP1;P1;durP2;ratioP2;P2;SDS_P1;SDS_P2;PMS_P1;PMS_P2;Temp;Humidity;BMP_temperature;BMP_pressure;BME280_temperature;BME280_humidity;BME280_pressure;Samples;Min_cycle;Max_cycle;Signal;HPM_P1;HPM_P2
2020/12/06 00:01:27;;;;;;;14.00;7.50;;;0.90;65.10;;;;;;5076188;28;20024;-38
2020/12/06 00:03:53;;;;;;;13.90;6.97;;;0.90;65.10;;;;;;5076190;28;20043;-40
2020/12/06 00:06:20;;;;;;;12.13;6.43;;;0.90;65.20;;;;;;5077214;28;20070;-37
2020/12/06 00:08:47;;;;;;;15.27;7.53;;;0.80;65.10;;;;;;5075018;28;20127;-38
2020/12/06 00:11:15;;;;;;;16.92;7.40;;;0.80;65.10;;;;;;5075821;28;20032;-36
2020/12/06 00:13:41;;;;;;;12.73;6.72;;;0.80;65.30;;;;;;5076641;28;20036;-43
2020/12/06 00:16:11;;;;;;;19.58;7.82;;;0.80;65.30;;;;;;5077326;28;20406;-42
2020/12/06 00:18:37;;;;;;;17.47;7.67;;;0.80;65.30;;;;;;5076332;28;20346;-40
2020/12/06 00:21:02;;;;;;;14.05;6.75;;;0.80;65.40;;;;;;5076723;28;20274;-40
2020/12/06 00:23:28;;;;;;;13.88;6.57;;;0.70;65.40;;;;;;5076563;28;20107;-41
2020/12/06 00:25:54;;;;;;;16.83;7.55;;;0.80;65.40;;;;;;5076866;28;20421;-40
2020/12/06 00:28:19;;;;;;;13.82;6.97;;;0.70;65.50;;;;;;5076230;28;20028;-40
2020/12/06 00:30:45;;;;;;;14.18;7.18;;;0.70;65.50;;;;;;5076601;28;20068;-40
2020/12/06 00:33:11;;;;;;;15.55;6.97;;;0.70;65.50;;;;;;5076232;28;20429;-40
2020/12/06 00:35:36;;;;;;;12.68;6.82;;;0.70;65.40;;;;;;5076776;28;20040;-40
2020/12/06 00:38:02;;;;;;;14.18;6.40;;;0.70;65.50;;;;;;5075923;28;20048;-40
2020/12/06 00:40:28;;;;;;;11.98;6.85;;;0.70;65.40;;;;;;5076380;28;20539;-40
2020/12/06 00:42:53;;;;;;;13.82;7.05;;;0.70;65.30;;;;;;5076083;28;20028;-41
2020/12/06 00:45:19;;;;;;;11.20;5.95;;;0.70;65.20;;;;;;5076343;28;20035;-40
2020/12/06 00:47:45;;;;;;;12.85;6.93;;;0.70;65.60;;;;;;5076283;28;20032;-42
2020/12/06 00:50:10;;;;;;;13.02;6.53;;;0.70;65.10;;;;;;5076636;28;20032;-40
2020/12/06 00:52:36;;;;;;;17.40;6.82;;;0.60;65.10;;;;;;5076027;28;20119;-42
2020/12/06 00:55:02;;;;;;;13.85;6.80;;;0.60;65.00;;;;;;5076424;28;20071;-42
2020/12/06 00:57:28;;;;;;;14.05;6.32;;;0.60;65.00;;;;;;5075135;28;20028;-40
2020/12/06 00:59:53;;;;;;;13.88;7.72;;;0.60;64.80;;;;;;5076021;28;20429;-40
2020/12/06 01:02:19;;;;;;;12.68;6.13;;;0.60;64.70;;;;;;5075938;28;20031;-40
2020/12/06 01:04:45;;;;;;;10.48;6.00;;;0.60;64.60;;;;;;5076015;28;20070;-40
2020/12/06 01:07:11;;;;;;;12.98;6.80;;;0.50;64.50;;;;;;5075895;28;20483;-40
2020/12/06 01:09:36;;;;;;;11.13;6.90;;;0.50;64.40;;;;;;5076112;28;20086;-40
2020/12/06 01:12:03;;;;;;;15.23;6.50;;;0.50;64.40;;;;;;5075828;28;20377;-42
2020/12/06 01:14:29;;;;;;;15.98;7.20;;;0.40;64.60;;;;;;5075827;28;20039;-40
2020/12/06 01:16:54;;;;;;;12.38;6.68;;;0.40;64.60;;;;;;5075751;28;20334;-40
2020/12/06 01:19:20;;;;;;;11.35;6.70;;;0.40;64.60;;;;;;5075974;28;20064;-40
2020/12/06 01:21:52;;;;;;;14.43;6.50;;;0.40;64.50;;;;;;5077967;28;20074;-40
2020/12/06 01:24:19;;;;;;;13.85;6.80;;;0.40;64.40;;;;;;5078120;28;20103;-40
2020/12/06 01:26:48;;;;;;;12.77;6.40;;;0.40;64.50;;;;;;5077907;28;20033;-40
2020/12/06 01:29:15;;;;;;;11.63;6.28;;;0.40;64.40;;;;;;5077895;28;20021;-40
2020/12/06 01:31:48;;;;;;;12.07;5.97;;;0.40;64.30;;;;;;5077851;28;20027;-40
2020/12/06 01:34:17;;;;;;;15.40;7.30;;;0.40;64.30;;;;;;5078017;28;20017;-40
2020/12/06 01:36:43;;;;;;;12.55;7.35;;;0.30;64.20;;;;;;5078841;28;20024;-40
2020/12/06 01:39:09;;;;;;;13.70;6.60;;;0.30;64.30;;;;;;5079183;28;20048;-40
2020/12/06 01:41:35;;;;;;;12.88;7.13;;;0.30;64.30;;;;;;5079280;28;20039;-40
2020/12/06 01:44:03;;;;;;;9.75;5.70;;;0.30;64.30;;;;;;5079180;28;20020;-42
2020/12/06 01:46:31;;;;;;;15.25;7.03;;;0.30;64.30;;;;;;5079110;28;20042;-40
2020/12/06 01:48:56;;;;;;;12.88;6.35;;;0.30;64.30;;;;;;5079393;28;20078;-40
2020/12/06 01:51:23;;;;;;;12.82;6.20;;;0.20;64.20;;;;;;5079885;28;20032;-40
2020/12/06 01:53:51;;;;;;;13.35;6.90;;;0.30;64.20;;;;;;5079298;28;20037;-40
2020/12/06 01:56:18;;;;;;;12.23;6.45;;;0.20;64.00;;;;;;5079483;28;20380;-40
2020/12/06 01:58:43;;;;;;;13.52;6.78;;;0.20;64.10;;;;;;5078835;28;20037;-41
2020/12/06 02:01:10;;;;;;;12.50;6.85;;;0.20;64.00;;;;;;5079295;28;20033;-40
2020/12/06 02:03:37;;;;;;;9.48;5.65;;;0.20;64.00;;;;;;5078535;28;20041;-40
2020/12/06 02:06:04;;;;;;;11.07;5.95;;;0.20;64.00;;;;;;5079030;28;20345;-41
2020/12/06 02:08:29;;;;;;;13.25;6.75;;;0.20;64.00;;;;;;5078690;28;20032;-40
2020/12/06 02:10:55;;;;;;;14.93;6.90;;;0.20;63.90;;;;;;5079389;28;20040;-40
2020/12/06 02:13:22;;;;;;;16.52;6.35;;;0.10;64.00;;;;;;5078706;28;20029;-40
2020/12/06 02:15:48;;;;;;;14.73;6.50;;;0.20;64.00;;;;;;5078840;28;20460;-40
2020/12/06 02:18:14;;;;;;;13.40;6.95;;;0.10;63.80;;;;;;5078537;28;20129;-41
2020/12/06 02:20:41;;;;;;;11.00;6.43;;;0.10;63.80;;;;;;5078950;28;20024;-40
2020/12/06 02:23:07;;;;;;;15.35;6.15;;;0.10;63.80;;;;;;5078716;28;20039;-40
2020/12/06 02:25:36;;;;;;;11.48;6.13;;;0.10;63.60;;;;;;5079337;28;20033;-40
2020/12/06 02:28:03;;;;;;;11.85;6.13;;;0.10;63.60;;;;;;5078734;28;20025;-41
2020/12/06 02:30:29;;;;;;;13.45;6.75;;;0.00;63.40;;;;;;5078815;28;20025;-40
2020/12/06 02:32:54;;;;;;;11.65;6.50;;;0.00;63.40;;;;;;5077958;28;20029;-40
2020/12/06 02:35:20;;;;;;;16.10;6.10;;;0.00;63.40;;;;;;5078948;28;20021;-40
2020/12/06 02:37:47;;;;;;;12.93;6.25;;;0.00;63.50;;;;;;5075088;28;20407;-40
2020/12/06 02:40:13;;;;;;;17.33;6.78;;;0.00;63.60;;;;;;5076992;28;20430;-40
2020/12/06 02:42:39;;;;;;;11.48;6.57;;;0.00;63.60;;;;;;5077253;28;20141;-40
2020/12/06 02:45:08;;;;;;;12.00;6.10;;;0.00;63.50;;;;;;5077229;28;20032;-38
2020/12/06 02:47:34;;;;;;;12.82;5.38;;;0.00;63.40;;;;;;5076757;28;20063;-42
2020/12/06 02:50:00;;;;;;;11.15;6.00;;;0.00;63.50;;;;;;5077055;28;20056;-41
2020/12/06 02:52:26;;;;;;;9.63;5.45;;;0.00;63.70;;;;;;5076717;28;20070;-39
2020/12/06 02:54:51;;;;;;;11.05;5.82;;;0.00;63.80;;;;;;5076970;28;20041;-41
2020/12/06 02:57:17;;;;;;;14.52;6.22;;;-0.10;63.70;;;;;;5076810;28;20020;-41
2020/12/06 02:59:43;;;;;;;12.10;6.28;;;0.00;63.60;;;;;;5076614;28;20433;-41
2020/12/06 03:02:09;;;;;;;11.20;6.05;;;-0.10;63.60;;;;;;5076614;28;20305;-41
2020/12/06 03:04:35;;;;;;;12.50;6.25;;;0.00;63.70;;;;;;5076609;28;20024;-41
2020/12/06 03:07:01;;;;;;;15.00;6.28;;;-0.10;63.50;;;;;;5076387;28;20027;-39
2020/12/06 03:09:27;;;;;;;11.27;5.68;;;0.00;63.60;;;;;;5076452;28;20032;-38
2020/12/06 03:11:53;;;;;;;11.68;5.97;;;-0.10;63.50;;;;;;5074713;28;20451;-39
2020/12/06 03:14:18;;;;;;;11.48;6.28;;;0.00;63.30;;;;;;5076337;28;20017;-37
2020/12/06 03:16:44;;;;;;;11.02;6.00;;;-0.10;63.30;;;;;;5076578;28;20036;-41
2020/12/06 03:19:10;;;;;;;15.27;6.30;;;-0.10;63.40;;;;;;5076247;28;20029;-41
2020/12/06 03:21:35;;;;;;;12.95;5.80;;;-0.10;63.40;;;;;;5076080;28;20013;-41
2020/12/06 03:24:01;;;;;;;17.50;6.20;;;-0.10;63.40;;;;;;5076162;28;20058;-39
2020/12/06 03:26:27;;;;;;;10.65;5.60;;;-0.10;63.30;;;;;;5076064;28;20032;-38
2020/12/06 03:28:53;;;;;;;10.82;5.30;;;-0.10;63.40;;;;;;5076178;28;20468;-39
2020/12/06 03:31:18;;;;;;;11.45;5.88;;;-0.10;63.20;;;;;;5076991;28;20031;-41
2020/12/06 03:33:44;;;;;;;12.85;5.90;;;-0.10;63.70;;;;;;5076208;28;20322;-41
2020/12/06 03:36:10;;;;;;;11.82;6.63;;;-0.10;63.00;;;;;;5076282;28;20063;-41
2020/12/06 03:38:35;;;;;;;13.88;7.45;;;-0.10;63.10;;;;;;5075399;28;20558;-41
2020/12/06 03:41:01;;;;;;;25.45;10.23;;;-0.20;63.20;;;;;;5076399;28;20036;-38
2020/12/06 03:43:27;;;;;;;20.13;7.50;;;-0.10;63.30;;;;;;5075260;28;20024;-40
2020/12/06 03:45:53;;;;;;;17.88;7.20;;;-0.10;63.00;;;;;;5073407;28;20119;-37
2020/12/06 03:48:18;;;;;;;15.65;7.47;;;-0.20;62.70;;;;;;5065860;28;20104;-39
2020/12/06 03:50:44;;;;;;;21.77;8.75;;;-0.20;62.70;;;;;;5057427;28;20040;-38
2020/12/06 03:53:10;;;;;;;20.55;8.25;;;-0.20;62.60;;;;;;5056729;28;20017;-40
2020/12/06 03:55:35;;;;;;;23.80;9.70;;;-0.20;62.70;;;;;;5057335;28;20136;-37
2020/12/06 03:58:01;;;;;;;17.00;7.45;;;-0.20;62.60;;;;;;5056888;28;20120;-39
2020/12/06 04:00:27;;;;;;;10.93;6.22;;;-0.20;62.70;;;;;;5057483;28;20091;-37
2020/12/06 04:02:54;;;;;;;13.20;6.72;;;-0.20;62.60;;;;;;5056615;28;20351;-40
2020/12/06 04:05:20;;;;;;;13.68;5.70;;;-0.20;62.40;;;;;;5038507;28;20459;-37
2020/12/06 04:07:47;;;;;;;10.18;6.00;;;-0.30;62.30;;;;;;5066965;28;20021;-39
2020/12/06 04:10:13;;;;;;;17.40;6.65;;;-0.20;62.40;;;;;;5056648;28;20029;-38
2020/12/06 04:12:39;;;;;;;16.17;7.78;;;-0.20;62.50;;;;;;5056641;28;20031;-38
2020/12/06 04:15:05;;;;;;;19.05;7.65;;;-0.30;62.40;;;;;;5056674;28;20028;-38
2020/12/06 04:17:32;;;;;;;15.77;6.68;;;-0.30;62.50;;;;;;5056650;28;20029;-39
2020/12/06 04:19:57;;;;;;;13.32;6.47;;;-0.30;62.20;;;;;;5056361;28;20037;-41
2020/12/06 04:22:23;;;;;;;11.95;6.28;;;-0.30;61.90;;;;;;5075372;28;20036;-39
2020/12/06 04:24:49;;;;;;;16.48;6.13;;;-0.30;61.80;;;;;;5057841;28;20028;-41
2020/12/06 04:27:15;;;;;;;10.45;5.38;;;-0.30;62.00;;;;;;5076790;28;20028;-41
2020/12/06 04:29:40;;;;;;;11.00;5.55;;;-0.30;62.10;;;;;;5077157;28;20418;-41
2020/12/06 04:32:06;;;;;;;16.75;6.05;;;-0.30;62.10;;;;;;5076294;28;20095;-41
2020/12/06 04:34:36;;;;;;;14.70;6.00;;;-0.40;61.80;;;;;;5075970;28;20086;-41
2020/12/06 04:37:03;;;;;;;13.82;6.43;;;-0.40;61.70;;;;;;5071837;28;20115;-39
2020/12/06 04:39:29;;;;;;;15.23;7.07;;;-0.40;61.70;;;;;;5059264;28;20045;-38
2020/12/06 04:41:55;;;;;;;17.65;7.18;;;-0.40;61.70;;;;;;5059715;28;20028;-38
2020/12/06 04:44:21;;;;;;;16.92;7.90;;;-0.40;61.70;;;;;;5074812;28;20107;-39
2020/12/06 04:46:47;;;;;;;15.55;7.70;;;-0.50;61.60;;;;;;5068860;28;20029;-39
2020/12/06 04:49:29;;;;;;;13.85;6.63;;;-0.50;61.60;;;;;;5062310;28;20079;-38
2020/12/06 04:51:56;;;;;;;10.35;6.00;;;-0.50;61.40;;;;;;5056946;28;20104;-38
2020/12/06 04:54:32;;;;;;;18.60;8.05;;;-0.50;61.50;;;;;;5056787;28;20064;-39
2020/12/06 04:57:03;;;;;;;13.23;7.57;;;-0.50;61.50;;;;;;5060092;28;20032;-38
2020/12/06 04:59:29;;;;;;;18.13;7.28;;;-0.50;61.50;;;;;;5060486;28;20106;-41
2020/12/06 05:01:57;;;;;;;14.38;6.90;;;-0.50;61.60;;;;;;5060249;28;20395;-42
2020/12/06 05:04:25;;;;;;;13.32;6.68;;;-0.60;61.60;;;;;;5060564;28;20178;-39
2020/12/06 05:06:54;;;;;;;10.38;6.18;;;-0.50;61.70;;;;;;5060017;28;20025;-38
2020/12/06 05:09:21;;;;;;;9.98;5.78;;;-0.60;61.60;;;;;;5060305;28;20318;-38
2020/12/06 05:11:47;;;;;;;12.57;5.85;;;-0.60;61.50;;;;;;5060025;28;20369;-38
2020/12/06 05:14:13;;;;;;;14.95;5.20;;;-0.60;61.50;;;;;;5059681;28;20067;-38
2020/12/06 05:16:40;;;;;;;16.23;5.82;;;-0.60;61.50;;;;;;5059936;28;20025;-39
2020/12/06 05:19:09;;;;;;;13.40;6.70;;;-0.60;61.50;;;;;;5057799;28;20418;-39
2020/12/06 05:21:37;;;;;;;12.48;6.55;;;-0.60;61.50;;;;;;5058666;28;20043;-39
2020/12/06 05:24:04;;;;;;;11.45;5.95;;;-0.60;61.50;;;;;;5058946;28;20032;-39
2020/12/06 05:26:30;;;;;;;12.10;6.00;;;-0.60;61.60;;;;;;5059647;28;20037;-39
2020/12/06 05:28:57;;;;;;;15.15;6.82;;;-0.60;61.60;;;;;;5059429;28;20035;-39
2020/12/06 05:31:23;;;;;;;14.80;6.40;;;-0.50;61.70;;;;;;5059906;28;20079;-39
2020/12/06 05:33:49;;;;;;;15.57;6.28;;;-0.60;61.70;;;;;;5058396;28;20060;-39
2020/12/06 05:36:15;;;;;;;13.25;6.28;;;-0.60;61.50;;;;;;5060089;28;20031;-38
2020/12/06 05:38:41;;;;;;;10.48;5.55;;;-0.60;61.30;;;;;;5058948;28;20053;-38
2020/12/06 05:41:07;;;;;;;10.32;5.13;;;-0.60;61.40;;;;;;5058911;28;20459;-39
2020/12/06 05:43:36;;;;;;;14.35;6.18;;;-0.70;61.20;;;;;;5059548;28;20036;-40
2020/12/06 05:46:13;;;;;;;12.70;6.22;;;-0.70;61.30;;;;;;5059575;28;20040;-39
2020/12/06 05:48:40;;;;;;;10.45;5.93;;;-0.70;61.40;;;;;;5059436;28;20045;-38
2020/12/06 05:51:06;;;;;;;15.57;7.68;;;-0.70;61.60;;;;;;5059966;28;20033;-38
2020/12/06 05:53:33;;;;;;;15.52;6.75;;;-0.70;61.70;;;;;;5059167;28;20020;-39
2020/12/06 05:56:19;;;;;;;13.02;6.10;;;-0.80;61.60;;;;;;5059365;28;20032;-38
2020/12/06 05:58:50;;;;;;;15.30;6.05;;;-0.70;61.60;;;;;;5059106;28;20332;-39
2020/12/06 06:01:18;;;;;;;13.88;6.97;;;-0.70;61.60;;;;;;5059649;28;20338;-39
2020/12/06 06:03:48;;;;;;;16.08;6.72;;;-0.70;61.50;;;;;;5059094;28;20029;-39
2020/12/06 06:06:25;;;;;;;19.60;7.55;;;-0.80;61.60;;;;;;5058792;28;20064;-38
2020/12/06 06:08:54;;;;;;;11.00;5.88;;;-0.70;61.70;;;;;;5059120;28;20023;-39
2020/12/06 06:11:29;;;;;;;29.08;9.38;;;-0.70;61.80;;;;;;5059199;28;20029;-38
2020/12/06 06:14:06;;;;;;;18.02;6.32;;;-0.70;61.70;;;;;;5059214;28;20361;-39
2020/12/06 06:16:33;;;;;;;15.45;6.57;;;-0.70;61.60;;;;;;5058609;28;20082;-39
2020/12/06 06:19:02;;;;;;;12.68;6.18;;;-0.60;61.70;;;;;;5058464;28;20091;-38
2020/12/06 06:21:40;;;;;;;28.67;12.95;;;-0.60;61.80;;;;;;5058260;28;20071;-38
2020/12/06 06:24:11;;;;;;;10.55;5.75;;;-0.60;61.60;;;;;;5058675;28;20033;-38
2020/12/06 06:26:41;;;;;;;12.02;5.80;;;-0.60;61.50;;;;;;5073201;28;20386;-38
2020/12/06 06:29:14;;;;;;;17.10;9.02;;;-0.60;61.50;;;;;;5078238;28;20017;-39
2020/12/06 06:31:41;;;;;;;14.40;6.70;;;-0.60;61.60;;;;;;5078610;28;20541;-39
2020/12/06 06:34:07;;;;;;;13.45;5.80;;;-0.50;61.70;;;;;;5076606;28;20119;-39
2020/12/06 06:36:34;;;;;;;16.65;6.28;;;-0.50;61.70;;;;;;5069708;28;20040;-39
2020/12/06 06:39:01;;;;;;;11.77;5.78;;;-0.50;61.50;;;;;;5067562;28;20147;-42
2020/12/06 06:41:27;;;;;;;15.73;6.07;;;-0.50;61.60;;;;;;5057951;28;20048;-42
2020/12/06 06:44:00;;;;;;;11.48;7.20;;;-0.40;61.70;;;;;;5066412;28;20384;-42
2020/12/06 06:46:32;;;;;;;12.77;6.28;;;-0.40;61.70;;;;;;5067186;28;20043;-42
2020/12/06 06:48:58;;;;;;;13.38;6.38;;;-0.40;61.70;;;;;;5057867;28;20033;-42
2020/12/06 06:51:24;;;;;;;14.23;7.22;;;-0.40;61.60;;;;;;5058579;28;20037;-42
2020/12/06 06:53:54;;;;;;;12.45;6.10;;;-0.40;61.50;;;;;;5058059;28;20079;-43
2020/12/06 06:56:21;;;;;;;12.35;6.55;;;-0.40;61.60;;;;;;5058549;28;20037;-42
2020/12/06 06:58:48;;;;;;;16.70;8.63;;;-0.30;61.50;;;;;;5057980;28;20041;-42
2020/12/06 07:01:23;;;;;;;15.13;7.53;;;-0.40;62.00;;;;;;5058123;28;20028;-42
2020/12/06 07:03:53;;;;;;;12.10;5.88;;;-0.30;61.50;;;;;;5057531;28;20126;-42
2020/12/06 07:06:48;;;;;;;12.00;6.05;;;-0.30;61.60;;;;;;5058098;28;20029;-42
2020/12/06 07:09:35;;;;;;;11.90;6.60;;;-0.30;61.40;;;;;;5057063;28;20075;-42
2020/12/06 07:12:01;;;;;;;9.82;5.45;;;-0.30;61.40;;;;;;5056096;28;20341;-42
2020/12/06 07:14:28;;;;;;;15.60;7.82;;;-0.30;61.30;;;;;;5057268;28;20040;-42
2020/12/06 07:16:56;;;;;;;12.90;6.63;;;-0.20;61.40;;;;;;5057533;28;20066;-42
2020/12/06 07:19:22;;;;;;;14.57;7.25;;;-0.20;61.50;;;;;;5056049;28;20048;-42
2020/12/06 07:21:49;;;;;;;12.00;7.00;;;-0.20;61.40;;;;;;5056479;28;20104;-42
2020/12/06 07:24:16;;;;;;;14.05;5.82;;;-0.20;61.20;;;;;;5057082;28;20071;-42
2020/12/06 07:26:43;;;;;;;13.73;7.78;;;-0.20;61.10;;;;;;5057216;28;20351;-42
2020/12/06 07:29:09;;;;;;;15.10;6.82;;;-0.10;61.30;;;;;;5057035;28;20025;-42
2020/12/06 07:31:35;;;;;;;9.43;6.05;;;-0.10;61.00;;;;;;5057180;28;20029;-42
2020/12/06 07:34:02;;;;;;;12.05;6.78;;;-0.10;60.90;;;;;;5071100;28;20043;-42
2020/12/06 07:36:36;;;;;;;13.27;6.15;;;-0.10;61.00;;;;;;5077305;28;20025;-42
2020/12/06 07:39:17;;;;;;;11.50;6.10;;;-0.10;61.00;;;;;;5076546;28;20565;-43
2020/12/06 07:41:50;;;;;;;10.00;6.40;;;0.00;61.10;;;;;;5076062;28;20036;-42
2020/12/06 07:44:16;;;;;;;12.68;5.70;;;0.00;61.10;;;;;;5076796;28;20106;-42
2020/12/06 07:46:42;;;;;;;10.98;5.90;;;0.00;61.10;;;;;;5077031;28;20445;-42
2020/12/06 07:49:09;;;;;;;15.93;8.95;;;0.10;61.00;;;;;;5076609;28;20024;-42
2020/12/06 07:51:34;;;;;;;11.70;7.07;;;0.10;60.90;;;;;;5076893;28;20136;-42
2020/12/06 07:54:02;;;;;;;15.10;10.73;;;0.10;60.80;;;;;;5076655;28;20060;-42
2020/12/06 07:56:31;;;;;;;11.45;7.20;;;0.10;60.50;;;;;;5076403;28;20028;-42
2020/12/06 07:59:06;;;;;;;10.15;6.05;;;0.10;60.50;;;;;;5076761;28;20523;-42
2020/12/06 08:01:33;;;;;;;15.30;7.20;;;0.20;60.40;;;;;;5076475;28;20028;-42
2020/12/06 08:04:00;;;;;;;12.18;6.53;;;0.20;60.60;;;;;;5076529;28;20058;-43
2020/12/06 08:06:28;;;;;;;18.50;7.20;;;0.20;60.20;;;;;;5076282;28;20109;-42
2020/12/06 08:09:02;;;;;;;10.48;6.25;;;0.20;59.80;;;;;;5076614;28;20028;-42
2020/12/06 08:11:35;;;;;;;11.32;6.10;;;0.20;59.90;;;;;;5076575;28;20043;-42
2020/12/06 08:14:01;;;;;;;13.10;6.13;;;0.30;59.90;;;;;;5076963;28;20028;-41
2020/12/06 08:16:27;;;;;;;23.92;11.30;;;0.30;59.70;;;;;;5075230;28;20059;-42
2020/12/06 08:19:00;;;;;;;36.67;18.08;;;0.30;60.30;;;;;;5076306;28;20438;-42
2020/12/06 08:21:42;;;;;;;31.67;16.58;;;0.30;59.70;;;;;;5077064;28;20036;-42
2020/12/06 08:24:21;;;;;;;17.45;10.38;;;0.30;59.30;;;;;;5076207;28;20035;-41
2020/12/06 08:26:48;;;;;;;20.67;11.38;;;0.30;59.30;;;;;;5076690;28;20028;-42
2020/12/06 08:29:14;;;;;;;14.88;8.95;;;0.30;59.20;;;;;;5076550;28;20024;-40
2020/12/06 08:31:42;;;;;;;16.08;8.15;;;0.30;59.10;;;;;;5074899;28;20082;-40
2020/12/06 08:34:10;;;;;;;14.98;8.75;;;0.30;59.10;;;;;;5074200;28;20025;-40
2020/12/06 08:36:37;;;;;;;11.15;6.72;;;0.30;58.70;;;;;;5076150;28;20443;-39
2020/12/06 08:39:21;;;;;;;14.70;8.40;;;0.30;58.80;;;;;;5068391;28;20170;-39
2020/12/06 08:41:52;;;;;;;14.27;7.03;;;0.30;58.90;;;;;;5070479;28;20057;-39
2020/12/06 08:44:18;;;;;;;12.35;7.15;;;0.30;58.80;;;;;;5072880;28;20020;-43
2020/12/06 08:46:51;;;;;;;21.52;11.60;;;0.30;58.90;;;;;;5075008;28;20055;-43
2020/12/06 08:49:19;;;;;;;10.77;6.50;;;0.40;59.00;;;;;;5072400;28;20021;-40
2020/12/06 08:51:50;;;;;;;15.27;7.68;;;0.40;58.90;;;;;;5073843;28;20035;-38
2020/12/06 08:54:35;;;;;;;16.55;7.63;;;0.50;58.90;;;;;;5066477;28;20055;-38
2020/12/06 08:57:10;;;;;;;13.98;7.22;;;0.50;58.70;;;;;;5073443;28;20032;-38
2020/12/06 08:59:37;;;;;;;18.35;8.88;;;0.50;58.80;;;;;;5075049;28;20048;-39
2020/12/06 09:02:04;;;;;;;18.23;9.25;;;0.60;58.60;;;;;;5075543;28;20031;-39
2020/12/06 09:04:33;;;;;;;21.75;10.63;;;0.60;58.40;;;;;;5076522;28;20074;-42
2020/12/06 09:06:58;;;;;;;15.10;8.45;;;0.60;58.20;;;;;;5071293;28;20027;-42
2020/12/06 09:09:24;;;;;;;14.98;8.00;;;0.60;58.30;;;;;;5075026;28;20068;-38
2020/12/06 09:11:54;;;;;;;22.77;8.27;;;0.70;58.10;;;;;;5074642;28;20024;-40
2020/12/06 09:14:20;;;;;;;14.75;8.38;;;0.70;57.90;;;;;;5075492;28;20377;-42
2020/12/06 09:16:46;;;;;;;14.52;6.97;;;0.70;57.50;;;;;;5075339;28;20373;-42
2020/12/06 09:19:11;;;;;;;12.73;6.50;;;0.70;57.50;;;;;;5075414;28;20072;-42
2020/12/06 09:21:37;;;;;;;14.75;7.72;;;0.70;57.40;;;;;;5058129;28;20025;-42
2020/12/06 09:24:03;;;;;;;11.82;6.70;;;0.70;57.10;;;;;;5073425;28;20444;-41
2020/12/06 09:26:30;;;;;;;11.82;6.70;;;0.70;57.20;;;;;;5073271;28;20081;-40
2020/12/06 09:28:55;;;;;;;18.50;9.15;;;0.80;57.40;;;;;;5073335;28;20035;-39
2020/12/06 09:31:22;;;;;;;13.40;7.82;;;0.80;57.20;;;;;;5072324;28;20567;-42
2020/12/06 09:33:48;;;;;;;12.43;7.00;;;0.80;57.00;;;;;;5075294;28;20024;-38
2020/12/06 09:36:14;;;;;;;11.60;6.10;;;0.80;57.00;;;;;;5074624;28;20024;-38
2020/12/06 09:38:40;;;;;;;12.93;7.32;;;0.90;56.50;;;;;;5075957;28;20044;-42
2020/12/06 09:41:12;;;;;;;13.57;6.75;;;0.80;56.40;;;;;;5070298;28;20036;-41
2020/12/06 09:43:39;;;;;;;14.25;6.82;;;0.80;56.30;;;;;;5078354;28;20406;-39
2020/12/06 09:46:05;;;;;;;14.38;7.22;;;0.80;56.40;;;;;;5078993;28;20032;-40
2020/12/06 09:48:31;;;;;;;12.18;7.07;;;0.80;56.70;;;;;;5073174;28;20036;-44
2020/12/06 09:50:58;;;;;;;17.08;7.80;;;0.90;57.10;;;;;;5066114;28;20029;-43
2020/12/06 09:53:23;;;;;;;15.80;7.47;;;1.00;57.00;;;;;;5075623;28;20029;-40
2020/12/06 09:55:50;;;;;;;11.73;7.38;;;1.10;57.00;;;;;;5078307;28;20315;-44
2020/12/06 09:58:16;;;;;;;14.07;7.93;;;1.10;56.80;;;;;;5076415;28;20020;-40
2020/12/06 10:00:42;;;;;;;14.77;8.38;;;1.20;56.60;;;;;;5078495;28;20082;-39
2020/12/06 10:03:08;;;;;;;13.13;7.53;;;1.30;56.40;;;;;;5077079;28;20032;-40
2020/12/06 10:05:33;;;;;;;15.05;7.53;;;1.30;56.00;;;;;;5091489;28;20445;-39
2020/12/06 10:07:59;;;;;;;18.83;7.43;;;1.40;56.00;;;;;;5078274;28;20044;-40
2020/12/06 10:10:25;;;;;;;13.20;7.75;;;1.40;55.80;;;;;;5078730;28;20028;-39
2020/12/06 10:12:52;;;;;;;12.95;6.68;;;1.40;55.70;;;;;;5077979;28;20028;-40
2020/12/06 10:15:19;;;;;;;19.20;7.63;;;1.40;55.60;;;;;;5077321;28;20035;-40
2020/12/06 10:17:46;;;;;;;32.63;10.20;;;1.50;55.40;;;;;;5078962;28;20025;-43
2020/12/06 10:20:12;;;;;;;16.73;7.43;;;1.50;55.10;;;;;;5077643;28;20040;-39
2020/12/06 10:22:38;;;;;;;13.43;7.30;;;1.50;55.00;;;;;;5079461;28;20031;-46
2020/12/06 10:25:05;;;;;;;13.63;7.60;;;1.50;54.60;;;;;;5079179;28;20071;-43
2020/12/06 10:27:31;;;;;;;17.60;10.35;;;1.50;54.80;;;;;;5078481;28;20107;-43
2020/12/06 10:29:57;;;;;;;16.05;8.90;;;1.60;55.20;;;;;;5078778;28;20423;-43
2020/12/06 10:32:23;;;;;;;17.75;9.80;;;1.60;55.10;;;;;;5076980;28;20078;-43
2020/12/06 10:34:49;;;;;;;13.52;7.78;;;1.60;54.80;;;;;;5077213;28;20028;-43
2020/12/06 10:37:15;;;;;;;15.65;8.48;;;1.60;54.60;;;;;;5077613;28;20491;-43
2020/12/06 10:39:41;;;;;;;15.55;8.40;;;1.60;54.80;;;;;;5088653;28;20074;-43
2020/12/06 10:42:06;;;;;;;12.25;7.47;;;1.70;54.70;;;;;;5077028;28;20025;-39
2020/12/06 10:44:32;;;;;;;11.02;6.75;;;1.70;54.60;;;;;;5082748;28;20044;-38
2020/12/06 10:46:59;;;;;;;15.75;7.78;;;1.70;54.50;;;;;;5072998;28;20039;-42
2020/12/06 10:49:25;;;;;;;12.75;7.20;;;1.70;54.30;;;;;;5065978;28;20048;-42
2020/12/06 10:51:50;;;;;;;15.07;8.93;;;1.80;54.50;;;;;;5075777;28;20052;-42
2020/12/06 10:54:18;;;;;;;15.27;8.18;;;1.80;54.60;;;;;;5069132;28;20043;-39
2020/12/06 10:56:44;;;;;;;11.95;6.97;;;1.90;54.50;;;;;;5079883;28;20032;-39
2020/12/06 10:59:11;;;;;;;14.40;7.65;;;1.90;54.60;;;;;;5075205;28;20141;-43
2020/12/06 11:01:43;;;;;;;12.93;7.00;;;2.00;54.60;;;;;;5070542;28;20414;-43
2020/12/06 11:04:15;;;;;;;16.05;10.18;;;2.10;54.70;;;;;;5071484;28;20377;-39
2020/12/06 11:06:41;;;;;;;13.80;7.65;;;2.10;54.60;;;;;;5057633;28;20028;-39
2020/12/06 11:09:07;;;;;;;14.82;8.10;;;2.20;54.30;;;;;;5072634;28;20036;-42
2020/12/06 11:11:33;;;;;;;15.10;9.18;;;2.20;54.20;;;;;;5076382;28;20145;-42
2020/12/06 11:13:59;;;;;;;16.05;8.32;;;2.20;54.80;;;;;;5075744;28;20020;-43
2020/12/06 11:16:25;;;;;;;11.60;7.60;;;2.30;54.30;;;;;;5073929;28;20024;-42
2020/12/06 11:18:51;;;;;;;17.83;11.43;;;2.30;53.80;;;;;;5075871;28;20033;-45
2020/12/06 11:21:20;;;;;;;17.30;7.20;;;2.30;53.70;;;;;;5074886;28;20063;-39
2020/12/06 11:23:49;;;;;;;10.95;6.40;;;2.40;53.60;;;;;;5073696;28;20024;-40
2020/12/06 11:26:17;;;;;;;16.95;10.10;;;2.40;53.60;;;;;;5055741;28;20327;-39
2020/12/06 11:28:47;;;;;;;27.90;14.80;;;2.40;53.70;;;;;;5055722;28;20025;-39
2020/12/06 11:31:14;;;;;;;21.33;9.82;;;2.50;53.70;;;;;;5056683;28;20119;-39
2020/12/06 11:33:41;;;;;;;20.55;11.02;;;2.50;53.50;;;;;;5057217;28;20091;-40
2020/12/06 11:36:08;;;;;;;18.90;9.55;;;2.60;53.20;;;;;;5076320;28;20024;-39
2020/12/06 11:38:34;;;;;;;15.05;7.95;;;2.60;53.00;;;;;;5076691;28;20045;-39
2020/12/06 11:41:00;;;;;;;11.13;6.78;;;2.70;53.10;;;;;;5077604;28;20131;-39
2020/12/06 11:43:25;;;;;;;11.77;6.25;;;2.80;53.00;;;;;;5076852;28;20333;-40
2020/12/06 11:45:51;;;;;;;11.45;6.95;;;2.80;52.30;;;;;;5075981;28;20036;-43
2020/12/06 11:48:17;;;;;;;11.70;5.95;;;2.80;52.80;;;;;;5077207;28;20119;-42
2020/12/06 11:50:44;;;;;;;12.15;6.72;;;2.80;52.20;;;;;;5077696;28;20035;-40
2020/12/06 11:53:10;;;;;;;12.32;6.80;;;2.80;52.10;;;;;;5076381;28;20484;-46
2020/12/06 11:55:35;;;;;;;9.20;6.43;;;2.80;51.90;;;;;;5077308;28;20028;-42
2020/12/06 11:58:02;;;;;;;16.08;6.75;;;2.80;52.40;;;;;;5090083;28;20039;-44
2020/12/06 12:00:28;;;;;;;20.77;7.63;;;2.70;51.80;;;;;;5077381;28;20044;-40
2020/12/06 12:02:55;;;;;;;10.77;5.70;;;2.60;51.60;;;;;;5087392;28;20176;-44
2020/12/06 12:05:22;;;;;;;9.00;5.68;;;2.60;51.60;;;;;;5075356;28;20028;-40
2020/12/06 12:07:48;;;;;;;11.45;5.82;;;2.50;51.80;;;;;;5071793;28;20338;-40
2020/12/06 12:10:16;;;;;;;15.98;8.07;;;2.50;52.00;;;;;;5072553;28;20237;-39
2020/12/06 12:12:43;;;;;;;10.80;6.55;;;2.50;52.10;;;;;;5057591;28;20024;-40
2020/12/06 12:15:09;;;;;;;10.90;6.25;;;2.50;52.10;;;;;;5074288;28;20357;-43
2020/12/06 12:17:35;;;;;;;11.30;6.28;;;2.40;52.20;;;;;;5066830;28;20082;-39
2020/12/06 12:20:04;;;;;;;10.98;5.70;;;2.40;52.00;;;;;;5069164;28;20103;-43
2020/12/06 12:22:31;;;;;;;10.68;6.30;;;2.30;52.00;;;;;;5068558;28;20029;-40
2020/12/06 12:24:57;;;;;;;14.05;7.07;;;2.30;52.30;;;;;;5057810;28;20036;-38
2020/12/06 12:27:24;;;;;;;9.75;5.45;;;2.20;52.30;;;;;;5084025;28;20028;-41
2020/12/06 12:29:51;;;;;;;9.10;5.88;;;2.10;52.50;;;;;;5084967;28;20036;-43
2020/12/06 12:32:16;;;;;;;11.30;6.68;;;2.10;52.60;;;;;;5094184;28;20055;-41
2020/12/06 12:34:43;;;;;;;12.43;6.80;;;2.00;52.60;;;;;;5084832;28;20067;-40
2020/12/06 12:37:10;;;;;;;10.88;6.28;;;2.00;52.80;;;;;;5075831;28;20024;-40
2020/12/06 12:39:35;;;;;;;14.10;6.90;;;1.90;52.80;;;;;;5074724;28;20048;-39
2020/12/06 12:42:01;;;;;;;12.52;6.55;;;1.80;52.90;;;;;;5087100;28;20028;-40
2020/12/06 12:44:27;;;;;;;12.63;7.40;;;1.80;53.10;;;;;;5096089;28;20035;-39